Seal Beach, California
Current Conditions -  °F | °C
As of 7:58 AM on Tuesday 21 Oct 2014 (Local Time) from KSLI Reporting Station
Overcast Overcast  
Wind Chill: 66°   Ceiling: 1300
Heat Index: 66°   Visibility: 7mi
Dew Point: 60°   Wind: 0mph
Humidity: 83%   Direction: NA
Pressure: 29.92"   Gusts: NA
Location:  33.74°N, 118.1°W
Report Text: KSLI 211458Z 00000KT 7SM OVC013 19/16 A2992 RMK AO2A SLP135 T01870158 53005
Loading
Personal Weather Stations






























Interactive Weather Map New forecast layout! Learn more

10-Day Weather Forecast

Advertisements
Track Severe Weather on mobile